Time;durP1;ratioP1;P1;durP2;ratioP2;P2;SDS_P1;SDS_P2;PMS_P1;PMS_P2;Temp;Humidity;BMP_temperature;BMP_pressure;BME280_temperature;BME280_humidity;BME280_pressure;Samples;Min_cycle;Max_cycle;Signal;HPM_P1;HPM_P2
2021/05/24 00:37:59;;;;;;;7.75;3.13;;;10.30;99.90;;;;;;4780656;29;20059;-84
2021/05/24 00:40:28;;;;;;;6.07;2.78;;;10.20;99.90;;;;;;4798460;29;20058;-83
2021/05/24 00:42:56;;;;;;;16.23;3.75;;;10.20;99.90;;;;;;4792752;29;20054;-84
2021/05/24 00:45:24;;;;;;;9.68;3.42;;;10.30;99.90;;;;;;4785059;29;20055;-83
2021/05/24 00:47:53;;;;;;;7.38;4.25;;;10.20;99.90;;;;;;4802862;29;20062;-83
2021/05/24 00:50:22;;;;;;;16.13;3.70;;;10.20;99.90;;;;;;4791344;29;20062;-85
2021/05/24 00:52:50;;;;;;;10.32;3.00;;;10.20;99.90;;;;;;4786543;30;20055;-84
2021/05/24 00:55:17;;;;;;;10.82;3.90;;;10.40;99.90;;;;;;4778630;30;20059;-83
2021/05/24 00:57:45;;;;;;;15.13;2.70;;;10.70;99.90;;;;;;4783356;30;20508;-84
2021/05/24 01:00:21;;;;;;;15.05;3.53;;;10.20;99.90;;;;;;4800929;29;20067;-85
2021/05/24 01:02:51;;;;;;;7.95;2.38;;;10.20;99.90;;;;;;4782242;30;20055;-84
2021/05/24 01:05:19;;;;;;;12.38;3.33;;;10.30;99.90;;;;;;4789299;29;20055;-84
2021/05/24 01:07:47;;;;;;;10.35;2.65;;;10.30;99.90;;;;;;4785348;29;20562;-85
2021/05/24 01:10:14;;;;;;;12.95;4.30;;;10.30;99.90;;;;;;4766944;30;20059;-83
2021/05/24 01:12:44;;;;;;;15.75;4.85;;;10.20;99.90;;;;;;4772563;29;20492;-86
2021/05/24 01:15:13;;;;;;;8.70;2.25;;;10.20;99.90;;;;;;4772728;30;20058;-84
2021/05/24 01:35:45;;;;;;;11.13;3.60;;;10.10;99.90;;;;;;4812834;23;20061;-84
2021/05/24 01:38:13;;;;;;;10.70;2.60;;;10.10;99.90;;;;;;4831478;29;20061;-84
2021/05/24 01:40:43;;;;;;;16.00;4.78;;;10.30;99.90;;;;;;4814363;29;20069;-88
2021/05/24 02:37:15;;;;;;;10.30;2.63;;;9.60;99.90;;;;;;4845866;23;20073;-84
2021/05/24 02:39:42;;;;;;;13.13;3.13;;;9.50;99.90;;;;;;4817626;29;20050;-84
2021/05/24 04:36:00;;;;;;;11.15;4.05;;;8.20;99.90;;;;;;4834715;23;20065;-84
2021/05/24 04:38:28;;;;;;;14.00;5.45;;;8.20;99.90;;;;;;4822800;29;20062;-84
2021/05/24 05:35:56;;;;;;;45.90;5.88;;;9.00;99.90;;;;;;4846065;24;20073;-87
2021/05/24 05:38:26;;;;;;;12.63;4.33;;;9.10;99.90;;;;;;4809656;29;20058;-84
2021/05/24 05:40:57;;;;;;;12.70;4.78;;;9.20;99.90;;;;;;4809653;29;20066;-84
2021/05/24 14:33:51;;;;;;;9.68;1.85;;;17.10;99.90;;;;;;5107771;24;20055;-94
2021/05/24 14:36:39;;;;;;;2.90;1.10;;;16.50;99.90;;;;;;4804715;29;20043;-93
2021/05/24 14:40:06;;;;;;;5.55;1.10;;;15.60;99.90;;;;;;4977546;24;20069;-93
2021/05/24 14:42:39;;;;;;;2.70;1.17;;;15.00;99.90;;;;;;4842692;29;20046;-91
2021/05/24 14:45:13;;;;;;;2.45;0.98;;;14.70;99.90;;;;;;4828727;29;20068;-89
2021/05/24 14:47:45;;;;;;;11.70;4.82;;;14.60;99.90;;;;;;4825928;29;20052;-87
2021/05/24 14:50:21;;;;;;;5.05;1.63;;;15.20;99.90;;;;;;4850807;29;20053;-89
2021/05/24 14:52:52;;;;;;;1.80;1.25;;;16.10;99.90;;;;;;4847792;29;20053;-90
2021/05/24 14:55:23;;;;;;;17.52;1.65;;;17.00;99.90;;;;;;4834957;29;20057;-90
2021/05/24 14:57:53;;;;;;;4.28;1.40;;;17.40;99.90;;;;;;4816184;29;20057;-86
2021/05/24 15:00:24;;;;;;;3.70;1.23;;;17.40;99.90;;;;;;4825625;29;20338;-91
2021/05/24 15:02:52;;;;;;;5.15;1.30;;;16.90;99.90;;;;;;4826363;29;20049;-90
2021/05/24 15:05:28;;;;;;;1.65;0.90;;;16.40;99.90;;;;;;4811403;29;20088;-87
2021/05/24 15:07:57;;;;;;;1.75;1.10;;;15.90;99.90;;;;;;4822492;29;20042;-90
2021/05/24 15:10:26;;;;;;;6.78;1.40;;;15.30;99.90;;;;;;4822391;29;20184;-89
2021/05/24 15:12:54;;;;;;;3.72;1.55;;;14.90;99.90;;;;;;4823114;29;20053;-90
2021/05/24 15:15:22;;;;;;;3.47;1.30;;;14.60;99.90;;;;;;4807051;29;20131;-90
2021/05/24 15:17:52;;;;;;;5.30;1.40;;;14.60;99.90;;;;;;4822851;29;20518;-89
2021/05/24 15:20:23;;;;;;;3.83;1.00;;;14.80;99.90;;;;;;4826539;29;20042;-89
2021/05/24 15:23:12;;;;;;;9.20;2.67;;;15.00;99.90;;;;;;4826991;29;20049;-88
2021/05/24 15:25:44;;;;;;;10.15;1.83;;;14.90;99.90;;;;;;4822491;29;20128;-87
2021/05/24 15:28:13;;;;;;;8.05;1.52;;;14.80;99.90;;;;;;4831162;29;20049;-87
2021/05/24 15:30:49;;;;;;;4.32;1.40;;;14.50;99.90;;;;;;4830625;29;20053;-88
2021/05/24 15:33:20;;;;;;;4.78;1.40;;;14.40;99.90;;;;;;4815810;29;20065;-87
2021/05/24 15:35:50;;;;;;;1.75;1.50;;;14.10;99.90;;;;;;4821924;29;20050;-89
2021/05/24 15:38:29;;;;;;;3.33;1.67;;;13.80;99.90;;;;;;4795652;29;20065;-86
2021/05/24 15:41:00;;;;;;;5.03;1.77;;;13.70;99.90;;;;;;4819031;29;20070;-86
2021/05/24 15:43:30;;;;;;;2.50;1.48;;;13.30;99.90;;;;;;4825299;29;20656;-87
2021/05/24 15:45:59;;;;;;;4.40;1.70;;;12.90;99.90;;;;;;4826334;29;20058;-89
2021/05/24 15:48:28;;;;;;;3.60;1.63;;;12.70;99.90;;;;;;4808315;29;20061;-87
2021/05/24 15:50:58;;;;;;;4.63;1.52;;;12.20;99.90;;;;;;4839296;29;20054;-87
2021/05/24 15:53:29;;;;;;;5.70;2.47;;;13.10;99.90;;;;;;4812714;29;20061;-88
2021/05/24 15:55:58;;;;;;;4.95;1.75;;;13.80;99.90;;;;;;4825715;29;20045;-89
2021/05/24 15:58:28;;;;;;;5.10;1.40;;;14.60;99.90;;;;;;4814908;29;20062;-90
2021/05/24 16:00:56;;;;;;;9.13;2.50;;;15.10;99.90;;;;;;4810144;29;20167;-92
2021/05/24 16:03:30;;;;;;;4.35;1.50;;;15.50;99.90;;;;;;4827419;29;20061;-90
2021/05/24 16:05:58;;;;;;;8.23;2.17;;;15.30;99.90;;;;;;4792034;29;20069;-89
2021/05/24 16:08:26;;;;;;;8.73;3.20;;;15.10;99.90;;;;;;4827116;29;20054;-89
2021/05/24 16:10:56;;;;;;;4.82;1.80;;;14.90;99.90;;;;;;4813857;29;20050;-89
2021/05/24 16:13:24;;;;;;;4.97;1.58;;;14.70;99.90;;;;;;4819000;29;20065;-89
2021/05/24 16:15:52;;;;;;;7.10;1.85;;;14.50;99.90;;;;;;4837881;29;20035;-90
2021/05/24 16:18:20;;;;;;;7.13;1.88;;;14.20;99.90;;;;;;4815673;29;20045;-89
2021/05/24 16:20:50;;;;;;;6.10;2.33;;;13.10;99.90;;;;;;4824293;29;20046;-90
2021/05/24 16:23:28;;;;;;;5.13;1.17;;;13.90;99.90;;;;;;4824670;29;20054;-89
2021/05/24 16:26:13;;;;;;;2.25;1.38;;;13.90;99.90;;;;;;4822930;29;20064;-89
2021/05/24 16:28:41;;;;;;;4.13;1.30;;;13.90;99.90;;;;;;4803299;29;20426;-87
2021/05/24 16:31:13;;;;;;;7.32;1.33;;;13.90;99.90;;;;;;4805695;29;20054;-89
2021/05/24 16:33:41;;;;;;;1.58;1.10;;;14.10;99.90;;;;;;4804586;29;20058;-88
2021/05/24 16:36:10;;;;;;;6.43;1.52;;;14.40;99.90;;;;;;4820135;29;20058;-89
2021/05/24 16:38:38;;;;;;;4.20;1.98;;;14.40;99.90;;;;;;4791438;29;20053;-89
2021/05/24 16:41:06;;;;;;;7.97;1.45;;;14.40;99.90;;;;;;4814210;29;20399;-88
2021/05/24 16:43:34;;;;;;;2.22;1.38;;;14.20;99.90;;;;;;4806158;29;20487;-89
2021/05/24 16:46:03;;;;;;;2.33;1.35;;;13.90;99.90;;;;;;4839019;29;20077;-90
2021/05/24 16:48:31;;;;;;;3.50;1.23;;;13.50;99.90;;;;;;4811902;29;20050;-89
2021/05/24 16:51:00;;;;;;;2.40;2.20;;;13.20;99.90;;;;;;4819296;29;20065;-88
2021/05/24 16:53:30;;;;;;;3.47;1.80;;;12.90;99.90;;;;;;4825567;29;20061;-88
2021/05/24 16:55:59;;;;;;;2.65;1.42;;;12.70;99.90;;;;;;4818657;29;20065;-89
2021/05/24 16:58:28;;;;;;;4.80;1.63;;;12.60;99.90;;;;;;4819217;29;20050;-89
2021/05/24 17:01:08;;;;;;;5.55;1.92;;;12.40;99.90;;;;;;4823671;29;20060;-89
2021/05/24 17:03:47;;;;;;;6.72;1.50;;;12.30;99.90;;;;;;4823996;29;20064;-88
2021/05/24 17:06:21;;;;;;;3.38;1.45;;;12.20;99.90;;;;;;4815178;29;20050;-88
2021/05/24 17:08:53;;;;;;;3.63;1.77;;;12.20;99.90;;;;;;4810339;29;20057;-88
2021/05/24 17:11:21;;;;;;;4.82;2.42;;;12.30;99.90;;;;;;4822897;29;20457;-90
2021/05/24 17:13:49;;;;;;;1.42;1.10;;;12.60;99.90;;;;;;4808068;29;20498;-88
2021/05/24 17:16:17;;;;;;;2.42;1.42;;;12.90;99.90;;;;;;4822517;29;20054;-88
2021/05/24 17:18:46;;;;;;;3.88;1.17;;;13.00;99.90;;;;;;4807405;29;20054;-88
2021/05/24 17:21:14;;;;;;;2.05;1.25;;;13.10;99.90;;;;;;4810518;29;20593;-92
2021/05/24 17:23:42;;;;;;;1.60;1.50;;;13.20;99.90;;;;;;4793315;29;20077;-88
2021/05/24 17:26:13;;;;;;;1.70;1.10;;;13.20;99.90;;;;;;4830245;29;20061;-90
2021/05/24 17:28:41;;;;;;;0.90;0.90;;;13.30;99.90;;;;;;4807600;29;20054;-90
2021/05/24 17:31:09;;;;;;;1.55;1.20;;;13.70;99.90;;;;;;4809464;29;20053;-91
2021/05/24 17:33:43;;;;;;;1.45;1.08;;;14.10;99.90;;;;;;4797330;29;20046;-89
2021/05/24 17:36:11;;;;;;;2.60;1.00;;;14.50;99.90;;;;;;4809768;29;20646;-91
2021/05/24 17:38:43;;;;;;;1.77;0.70;;;14.50;99.90;;;;;;4809761;29;20050;-90
2021/05/24 17:41:12;;;;;;;1.40;1.02;;;14.30;99.90;;;;;;4794369;29;20058;-90
2021/05/24 17:43:42;;;;;;;0.60;0.60;;;15.00;99.90;;;;;;4809065;29;20057;-90
2021/05/24 17:46:12;;;;;;;1.55;0.88;;;14.40;99.90;;;;;;4822290;29;20057;-91
2021/05/24 17:48:40;;;;;;;2.08;1.00;;;14.40;99.90;;;;;;4837947;29;20045;-88
2021/05/24 17:51:19;;;;;;;1.33;1.00;;;14.00;99.90;;;;;;4811513;29;20049;-90
2021/05/24 17:53:51;;;;;;;3.70;1.05;;;13.70;99.90;;;;;;4824947;29;20439;-91
2021/05/24 17:56:20;;;;;;;1.30;1.20;;;13.30;99.90;;;;;;4824937;29;20042;-90
2021/05/24 17:58:48;;;;;;;1.67;1.20;;;13.00;99.90;;;;;;4794399;29;20049;-89
2021/05/24 18:01:19;;;;;;;1.17;0.90;;;12.70;99.90;;;;;;4792066;29;20434;-89
2021/05/24 18:04:05;;;;;;;4.25;1.02;;;12.60;99.90;;;;;;4823340;29;20506;-89
2021/05/24 18:06:40;;;;;;;1.83;1.20;;;12.40;99.90;;;;;;4797636;29;20051;-89
2021/05/24 18:09:22;;;;;;;3.97;1.38;;;12.20;99.90;;;;;;4797928;29;20042;-89
2021/05/24 18:11:53;;;;;;;1.55;1.30;;;12.00;99.90;;;;;;4811891;29;20073;-89
2021/05/24 18:14:23;;;;;;;2.33;1.40;;;12.00;99.90;;;;;;4822595;29;20057;-90
2021/05/24 18:16:53;;;;;;;3.25;1.42;;;11.70;99.90;;;;;;4821430;29;20053;-88
2021/05/24 18:19:35;;;;;;;2.80;1.30;;;11.80;99.90;;;;;;4823401;29;20490;-88
2021/05/24 18:22:03;;;;;;;1.70;1.60;;;11.50;99.90;;;;;;4831513;29;20052;-89
2021/05/24 18:24:33;;;;;;;2.17;1.40;;;11.60;99.90;;;;;;4818201;29;20065;-90
2021/05/24 18:27:03;;;;;;;3.15;1.10;;;11.60;99.90;;;;;;4810053;29;20050;-89
2021/05/24 18:29:33;;;;;;;3.45;1.50;;;11.50;99.90;;;;;;4821440;29;20050;-89
2021/05/24 18:32:08;;;;;;;1.30;1.20;;;11.80;99.90;;;;;;4810742;29;20070;-88
2021/05/24 18:34:39;;;;;;;2.15;1.50;;;11.50;99.90;;;;;;4814698;29;20065;-88
2021/05/24 18:37:14;;;;;;;3.63;1.60;;;11.50;99.90;;;;;;4804310;29;20053;-88
2021/05/24 18:39:46;;;;;;;2.20;1.67;;;11.60;99.90;;;;;;4793205;29;20061;-89
2021/05/24 18:42:16;;;;;;;1.55;1.45;;;11.40;99.90;;;;;;4809863;29;20053;-88
2021/05/24 18:44:46;;;;;;;7.38;2.22;;;11.40;99.90;;;;;;4835559;29;20057;-88
2021/05/24 18:47:13;;;;;;;6.40;1.95;;;11.30;99.90;;;;;;4795223;29;20065;-89
2021/05/24 18:49:42;;;;;;;3.20;1.67;;;11.30;99.90;;;;;;4791740;29;20057;-89
2021/05/24 18:52:11;;;;;;;1.77;1.20;;;11.30;99.90;;;;;;4784720;29;20070;-88
2021/05/24 18:54:41;;;;;;;5.57;2.08;;;11.10;99.90;;;;;;4805532;29;20053;-89
2021/05/24 18:57:12;;;;;;;7.38;1.90;;;11.20;99.90;;;;;;4824421;29;20588;-88
2021/05/24 18:59:40;;;;;;;6.10;3.08;;;11.40;99.90;;;;;;4794876;29;20050;-89
2021/05/24 19:02:10;;;;;;;4.25;2.20;;;11.10;99.90;;;;;;4779718;29;20364;-88
2021/05/24 19:06:02;;;;;;;7.28;1.92;;;11.00;99.90;;;;;;4812807;29;20042;-88
2021/05/24 19:07:33;;;;;;;2.95;2.08;;;11.00;99.90;;;;;;4836016;29;20053;-89
2021/05/24 19:10:03;;;;;;;3.38;1.83;;;11.00;99.90;;;;;;4848317;29;20518;-88
2021/05/24 19:12:37;;;;;;;6.10;1.90;;;11.00;99.90;;;;;;4813482;29;20055;-88
2021/05/24 19:15:06;;;;;;;1.85;1.50;;;10.90;99.90;;;;;;4809588;29;20050;-86
2021/05/24 19:17:34;;;;;;;6.18;1.85;;;10.80;99.90;;;;;;4826415;29;20054;-87
2021/05/24 19:20:04;;;;;;;4.82;1.40;;;10.80;99.90;;;;;;4819629;29;20068;-87
2021/05/24 19:22:34;;;;;;;2.15;1.90;;;10.70;99.90;;;;;;4842014;29;20506;-86
2021/05/24 19:25:04;;;;;;;3.30;2.33;;;10.60;99.90;;;;;;4838703;29;20491;-88
2021/05/24 19:27:41;;;;;;;7.93;2.13;;;10.50;99.90;;;;;;4849463;29;20057;-85
2021/05/24 19:30:11;;;;;;;5.00;1.92;;;10.40;99.90;;;;;;4813729;29;20517;-86
2021/05/24 19:32:39;;;;;;;2.40;1.73;;;10.30;99.90;;;;;;4830024;29;20049;-85
2021/05/24 19:35:09;;;;;;;6.80;1.73;;;10.20;99.90;;;;;;4829132;29;20050;-85
2021/05/24 19:37:40;;;;;;;5.07;2.20;;;10.10;99.90;;;;;;4807259;29;20073;-83
2021/05/24 19:40:11;;;;;;;5.28;2.00;;;10.10;99.90;;;;;;4845631;29;20466;-86
2021/05/24 19:42:41;;;;;;;4.55;2.22;;;10.00;99.90;;;;;;4809752;29;20046;-86
2021/05/24 19:45:12;;;;;;;4.32;1.60;;;9.90;99.90;;;;;;4817585;29;20141;-85
2021/05/24 20:24:25;;;;;;;4.82;2.15;;;9.60;99.90;;;;;;4830492;29;20050;-84
2021/05/24 20:26:53;;;;;;;4.45;2.38;;;9.60;99.90;;;;;;4819514;29;20065;-86
2021/05/24 20:29:22;;;;;;;5.85;3.63;;;9.60;99.90;;;;;;4831221;29;20066;-86
2021/05/24 20:31:50;;;;;;;6.30;2.80;;;9.60;99.90;;;;;;4816410;29;20410;-86
2021/05/24 20:34:19;;;;;;;6.25;3.10;;;9.70;99.90;;;;;;4819258;29;20062;-86
2021/05/24 20:36:51;;;;;;;9.32;3.72;;;9.60;99.90;;;;;;4831978;29;20061;-87
2021/05/24 20:39:19;;;;;;;7.85;3.58;;;9.60;99.90;;;;;;4813066;29;20066;-86
2021/05/24 20:41:52;;;;;;;5.47;3.15;;;9.60;99.90;;;;;;4814278;29;20058;-86
2021/05/24 20:44:21;;;;;;;10.30;3.63;;;9.60;99.90;;;;;;4817543;29;20054;-87
2021/05/24 20:46:52;;;;;;;5.50;3.53;;;9.60;99.90;;;;;;4815674;29;20053;-86
2021/05/24 20:49:22;;;;;;;8.55;3.35;;;9.60;99.90;;;;;;4822198;29;20053;-86
2021/05/24 20:51:54;;;;;;;7.07;3.90;;;9.70;99.90;;;;;;4855367;29;20061;-85
2021/05/24 20:54:23;;;;;;;6.93;3.05;;;9.70;99.90;;;;;;4836915;29;20054;-85
2021/05/24 20:56:59;;;;;;;3.42;2.25;;;9.70;99.90;;;;;;4817224;29;20053;-83
2021/05/24 20:59:29;;;;;;;2.03;1.83;;;9.70;99.90;;;;;;4837608;29;20053;-84
2021/05/24 21:01:59;;;;;;;6.57;2.63;;;9.90;99.90;;;;;;4820944;29;20049;-84
2021/05/24 21:04:30;;;;;;;6.90;2.63;;;9.70;99.90;;;;;;4805712;29;20073;-86
2021/05/24 21:07:01;;;;;;;6.38;2.83;;;9.70;99.90;;;;;;4828134;29;20042;-85
2021/05/24 21:09:32;;;;;;;5.70;2.15;;;9.70;99.90;;;;;;4838208;29;20040;-85
2021/05/24 21:12:01;;;;;;;3.50;2.10;;;9.70;99.90;;;;;;4795965;29;20415;-86
2021/05/24 21:14:31;;;;;;;2.90;2.08;;;9.60;99.90;;;;;;4825801;29;20403;-85
2021/05/24 21:16:59;;;;;;;5.70;2.63;;;9.60;99.90;;;;;;4825055;29;20053;-85
2021/05/24 21:19:27;;;;;;;3.33;2.15;;;9.60;99.90;;;;;;4838501;29;20122;-84
2021/05/24 21:21:57;;;;;;;4.30;1.90;;;9.60;99.90;;;;;;4821552;29;20053;-86
2021/05/24 21:24:27;;;;;;;4.32;2.10;;;9.60;99.90;;;;;;4822195;29;20085;-85
2021/05/24 21:26:57;;;;;;;3.25;2.50;;;9.60;99.90;;;;;;4813014;29;20440;-83
2021/05/24 21:29:25;;;;;;;5.32;3.28;;;9.60;99.90;;;;;;4826635;29;20575;-84
2021/05/24 21:31:53;;;;;;;3.22;2.80;;;10.80;99.90;;;;;;4812771;29;20058;-84
2021/05/24 21:37:09;;;;;;;4.55;2.83;;;9.60;99.90;;;;;;4822162;29;20058;-83
2021/05/24 21:39:38;;;;;;;7.05;2.65;;;9.60;99.90;;;;;;4822821;29;20050;-83
2021/05/24 21:42:07;;;;;;;8.90;2.80;;;9.60;99.90;;;;;;4838410;29;20054;-83
2021/05/24 21:44:35;;;;;;;9.55;2.88;;;9.60;99.90;;;;;;4844503;29;20057;-84
2021/05/24 21:47:07;;;;;;;5.82;2.63;;;9.60;99.90;;;;;;4806931;29;20082;-85
2021/05/24 21:49:36;;;;;;;4.13;2.67;;;9.60;99.90;;;;;;4843421;29;20050;-84
2021/05/24 21:52:06;;;;;;;11.20;3.88;;;9.60;99.90;;;;;;4835211;29;20065;-83
2021/05/24 21:54:37;;;;;;;4.05;2.58;;;9.60;99.90;;;;;;4850413;29;20061;-84
2021/05/24 21:57:08;;;;;;;4.25;2.47;;;9.70;99.90;;;;;;4803526;29;20387;-83
2021/05/24 21:59:39;;;;;;;3.40;2.40;;;9.70;99.90;;;;;;4853697;29;20077;-84
2021/05/24 22:02:08;;;;;;;6.38;2.80;;;9.60;99.90;;;;;;4854835;29;20050;-84
2021/05/24 22:04:39;;;;;;;3.58;2.97;;;9.60;99.90;;;;;;4856127;29;20144;-84
2021/05/24 22:07:07;;;;;;;4.28;2.58;;;9.60;99.90;;;;;;4851022;29;20062;-83
2021/05/24 22:09:40;;;;;;;6.75;2.92;;;9.60;99.90;;;;;;4829417;29;20053;-84
2021/05/24 22:12:09;;;;;;;5.18;2.53;;;9.60;99.90;;;;;;4834277;29;20061;-83
2021/05/24 22:14:39;;;;;;;5.95;2.83;;;9.60;99.90;;;;;;4823814;29;20070;-83
2021/05/24 22:17:09;;;;;;;5.80;2.67;;;9.60;99.90;;;;;;4849574;29;20536;-85
2021/05/24 22:19:45;;;;;;;6.78;3.13;;;9.60;99.90;;;;;;4847630;29;20057;-84
2021/05/24 22:22:19;;;;;;;6.05;2.38;;;9.60;99.90;;;;;;4838141;29;20498;-85
2021/05/24 22:24:53;;;;;;;8.70;3.53;;;9.60;99.90;;;;;;4831235;29;20056;-85
2021/05/24 22:27:25;;;;;;;9.60;2.90;;;9.70;99.90;;;;;;4843742;29;20053;-84
2021/05/24 22:29:55;;;;;;;4.32;3.85;;;8.20;99.90;;;;;;4828189;29;20066;-84
2021/05/24 22:32:26;;;;;;;5.65;2.63;;;9.60;99.90;;;;;;4847431;29;20056;-89
2021/05/24 22:34:55;;;;;;;5.32;2.53;;;9.60;99.90;;;;;;4801972;29;20069;-85
2021/05/24 22:37:26;;;;;;;5.60;2.42;;;9.60;99.90;;;;;;4816082;29;20062;-84
2021/05/24 22:39:55;;;;;;;8.05;2.25;;;9.60;99.90;;;;;;4813347;29;20065;-85
2021/05/24 22:42:26;;;;;;;6.63;3.22;;;9.60;99.90;;;;;;4848077;29;20057;-83
2021/05/24 22:44:54;;;;;;;3.55;2.17;;;9.60;99.90;;;;;;4837084;23;20057;-84
2021/05/24 22:47:25;;;;;;;3.83;2.60;;;9.80;99.90;;;;;;4845907;29;20050;-85
2021/05/24 22:50:07;;;;;;;5.65;3.10;;;10.70;99.90;;;;;;4837362;29;20042;-85
2021/05/24 22:52:38;;;;;;;8.73;3.85;;;9.60;99.90;;;;;;4867668;29;20037;-85
2021/05/24 22:55:08;;;;;;;4.43;3.28;;;10.20;99.90;;;;;;4816902;29;20045;-85
2021/05/24 22:57:36;;;;;;;4.88;3.00;;;9.60;99.90;;;;;;4835684;29;20057;-85
2021/05/24 23:00:10;;;;;;;7.35;3.25;;;9.90;99.90;;;;;;4821286;29;20054;-84
2021/05/24 23:02:41;;;;;;;7.05;4.25;;;9.60;99.90;;;;;;4832078;29;20057;-85
2021/05/24 23:05:14;;;;;;;6.10;3.10;;;9.60;99.90;;;;;;4848568;29;20057;-85
2021/05/24 23:07:45;;;;;;;6.93;5.22;;;9.60;99.90;;;;;;4836229;29;20053;-86
2021/05/24 23:10:15;;;;;;;3.78;3.10;;;8.20;99.90;;;;;;4837899;29;20055;-84
2021/05/24 23:12:47;;;;;;;4.65;3.05;;;9.60;99.90;;;;;;4851312;29;20057;-85
2021/05/24 23:15:18;;;;;;;6.45;3.30;;;9.60;99.90;;;;;;4865621;29;20049;-85
2021/05/24 23:17:50;;;;;;;7.25;3.25;;;9.60;99.90;;;;;;4852712;29;20896;-85
2021/05/24 23:20:20;;;;;;;14.93;4.63;;;10.60;99.90;;;;;;4824191;29;20067;-86
2021/05/24 23:22:54;;;;;;;7.18;3.95;;;10.70;99.90;;;;;;4838959;29;20049;-85
2021/05/24 23:25:26;;;;;;;7.43;3.42;;;9.60;99.90;;;;;;4838109;29;20050;-85
2021/05/24 23:27:55;;;;;;;9.10;3.83;;;9.60;99.90;;;;;;4867776;29;20065;-86
2021/05/24 23:30:29;;;;;;;6.20;3.47;;;9.60;99.90;;;;;;4824332;29;20057;-85
2021/05/24 23:33:00;;;;;;;10.23;4.43;;;9.70;99.90;;;;;;4838726;29;20088;-85
2021/05/24 23:35:31;;;;;;;7.17;3.83;;;9.50;99.90;;;;;;4848305;29;20061;-85
2021/05/24 23:37:59;;;;;;;7.63;4.88;;;9.50;99.90;;;;;;4833089;29;20057;-86
2021/05/24 23:40:28;;;;;;;6.18;4.07;;;9.40;99.90;;;;;;4837692;29;20052;-85
2021/05/24 23:43:01;;;;;;;9.10;4.32;;;9.40;99.90;;;;;;4822914;29;20068;-85
2021/05/24 23:45:33;;;;;;;9.13;4.65;;;9.40;99.90;;;;;;4848903;29;20062;-85
2021/05/24 23:48:03;;;;;;;8.30;4.45;;;9.40;99.90;;;;;;4853453;29;20078;-85
2021/05/24 23:50:33;;;;;;;10.40;5.03;;;9.40;99.90;;;;;;4853036;29;20053;-85
2021/05/24 23:53:02;;;;;;;11.65;5.35;;;9.30;99.90;;;;;;4853712;29;20058;-85
2021/05/24 23:55:31;;;;;;;11.57;5.47;;;9.30;99.90;;;;;;4819919;29;20503;-86
2021/05/24 23:58:02;;;;;;;7.88;4.22;;;9.80;99.90;;;;;;4852296;29;20519;-86
